Search for airport 
image banner adimage banner adimage banner ad
image banner ad

60CA - Q Area

Located in Concord, United States

ICAO - 60CA, IATA -

Data provided by Airmate  

General information

Coordinates: N38°2'43" W122°0'26"
Elevation is 49 feet MSL.
Magnetic variation is 16° East
View others Airports in California

Operational data

Special qualification required
Current time UTC:
Current local time:
Weather at : KCCR - Buchanan Field ( 8 km )
METAR: KCCR 231353Z 00000KT 10SM CLR 13/11 A2996 RMK AO2 SLP130 T01330106
View NOTAMs / SUP AIP / TFR affecting this airport [VIEW]
Communications frequencies: [VIEW]

Runways:

Airport contact information

Address: Concord United States

Satellite view of 60CA